Time;durP1;ratioP1;P1;durP2;ratioP2;P2;SDS_P1;SDS_P2;PMS_P1;PMS_P2;Temp;Humidity;BMP_temperature;BMP_pressure;BME280_temperature;BME280_humidity;BME280_pressure;Samples;Min_cycle;Max_cycle;Signal;HPM_P1;HPM_P2
2021/09/20 00:01:25;;;;;;;4.32;1.80;;;13.20;99.90;;;;;;5061159;28;20066;-74
2021/09/20 00:03:50;;;;;;;3.35;1.50;;;13.10;99.90;;;;;;5062672;28;20028;-74
2021/09/20 00:06:16;;;;;;;5.95;1.80;;;13.10;99.90;;;;;;5070907;28;20032;-74
2021/09/20 00:08:42;;;;;;;4.45;1.95;;;13.10;99.90;;;;;;5069520;28;20604;-74
2021/09/20 00:11:08;;;;;;;1.95;1.50;;;13.10;99.90;;;;;;5071381;28;20036;-74
2021/09/20 00:13:34;;;;;;;3.05;1.77;;;13.10;99.90;;;;;;5058185;28;20077;-73
2021/09/20 00:16:00;;;;;;;2.20;1.60;;;13.10;99.90;;;;;;5063517;28;20021;-74
2021/09/20 00:18:26;;;;;;;3.25;1.90;;;13.10;99.90;;;;;;5071064;28;20032;-73
2021/09/20 00:20:51;;;;;;;2.70;1.73;;;13.10;99.90;;;;;;5061285;28;20021;-73
2021/09/20 00:23:17;;;;;;;2.28;1.70;;;13.10;99.90;;;;;;5059983;28;20111;-73
2021/09/20 00:25:42;;;;;;;4.68;1.80;;;13.10;99.90;;;;;;5069997;28;20376;-73
2021/09/20 00:28:08;;;;;;;2.70;1.77;;;13.10;99.90;;;;;;5065717;28;20532;-74
2021/09/20 00:30:33;;;;;;;3.70;1.58;;;13.00;99.90;;;;;;5071070;28;20032;-74
2021/09/20 00:32:59;;;;;;;2.92;1.60;;;13.00;99.90;;;;;;5066582;28;20021;-74
2021/09/20 00:35:24;;;;;;;3.25;1.90;;;13.00;99.90;;;;;;5067154;28;20450;-74
2021/09/20 00:37:50;;;;;;;6.90;1.80;;;13.00;99.90;;;;;;5059289;28;20469;-73
2021/09/20 00:40:16;;;;;;;2.85;1.85;;;13.00;99.90;;;;;;5068118;28;20119;-74
2021/09/20 00:42:41;;;;;;;5.20;1.80;;;13.00;99.90;;;;;;5063425;28;20215;-74
2021/09/20 00:45:08;;;;;;;6.72;1.70;;;13.00;99.90;;;;;;5067270;28;20024;-73
2021/09/20 00:47:33;;;;;;;4.22;2.17;;;13.00;99.90;;;;;;5065892;28;20112;-74
2021/09/20 00:49:59;;;;;;;3.85;2.20;;;13.00;99.90;;;;;;5064867;28;20123;-74
2021/09/20 00:52:24;;;;;;;2.20;1.58;;;13.10;99.90;;;;;;5070364;28;20506;-74
2021/09/20 00:54:50;;;;;;;5.40;1.88;;;13.00;99.90;;;;;;5066239;28;20033;-74
2021/09/20 00:57:17;;;;;;;4.00;2.15;;;13.10;99.90;;;;;;5061447;28;20055;-74
2021/09/20 00:59:44;;;;;;;3.63;1.60;;;13.10;99.90;;;;;;5058502;28;20035;-73
2021/09/20 01:02:09;;;;;;;2.92;1.77;;;13.10;99.90;;;;;;5068955;28;20028;-74
2021/09/20 01:04:35;;;;;;;3.20;1.90;;;13.10;99.90;;;;;;5065292;28;20078;-73
2021/09/20 01:07:00;;;;;;;3.60;1.90;;;13.10;99.90;;;;;;5061418;28;20111;-73
2021/09/20 01:09:26;;;;;;;3.58;2.05;;;13.10;99.90;;;;;;5070115;28;20104;-73
2021/09/20 01:11:53;;;;;;;3.92;2.10;;;13.00;99.90;;;;;;5066521;28;20025;-73
2021/09/20 01:14:18;;;;;;;2.17;1.77;;;13.00;99.90;;;;;;5061280;28;20119;-74
2021/09/20 01:16:44;;;;;;;6.53;2.40;;;13.10;99.90;;;;;;5063136;28;20115;-73
2021/09/20 01:19:10;;;;;;;2.03;1.70;;;13.00;99.90;;;;;;5068391;28;20025;-74
2021/09/20 01:21:35;;;;;;;3.83;1.90;;;13.00;99.90;;;;;;5058218;28;20027;-74
2021/09/20 01:24:01;;;;;;;4.32;2.00;;;13.00;99.90;;;;;;5061648;28;20500;-73
2021/09/20 01:26:27;;;;;;;4.85;1.55;;;13.00;99.90;;;;;;5059678;28;20028;-74
2021/09/20 01:28:53;;;;;;;5.57;2.25;;;13.00;99.90;;;;;;5067753;28;20035;-73
2021/09/20 01:31:18;;;;;;;2.45;1.60;;;13.00;99.90;;;;;;5059603;28;20515;-73
2021/09/20 01:33:44;;;;;;;4.07;1.98;;;13.00;99.90;;;;;;5067390;28;20368;-73
2021/09/20 01:36:09;;;;;;;2.22;1.67;;;13.00;99.90;;;;;;5065228;28;20021;-74
2021/09/20 01:38:35;;;;;;;3.92;1.85;;;13.00;99.90;;;;;;5067200;28;20029;-74
2021/09/20 01:41:00;;;;;;;4.60;1.90;;;13.00;99.90;;;;;;5069034;28;20017;-74
2021/09/20 01:43:26;;;;;;;3.65;1.98;;;13.00;99.90;;;;;;5069048;28;20056;-74
2021/09/20 01:45:51;;;;;;;3.72;1.70;;;13.00;99.90;;;;;;5062750;28;20024;-74
2021/09/20 01:48:18;;;;;;;6.60;1.80;;;13.00;99.90;;;;;;5067375;28;20032;-73
2021/09/20 01:50:45;;;;;;;4.00;2.13;;;12.90;99.90;;;;;;5067661;28;20028;-74
2021/09/20 01:53:10;;;;;;;2.80;1.90;;;12.90;99.90;;;;;;5063635;28;20025;-74
2021/09/20 01:55:36;;;;;;;3.50;1.88;;;12.90;99.90;;;;;;5061181;28;20028;-74
2021/09/20 01:58:02;;;;;;;2.38;1.52;;;12.90;99.90;;;;;;5067532;28;20148;-74
2021/09/20 02:00:27;;;;;;;3.20;2.15;;;12.90;99.90;;;;;;5062597;28;20075;-75
2021/09/20 02:02:53;;;;;;;6.35;1.83;;;12.90;99.90;;;;;;5065920;28;20384;-74
2021/09/20 02:05:18;;;;;;;5.28;1.98;;;12.90;99.90;;;;;;5067382;28;20033;-74
2021/09/20 02:07:44;;;;;;;5.35;2.20;;;12.90;99.90;;;;;;5066013;28;20039;-74
2021/09/20 02:10:12;;;;;;;4.72;2.17;;;12.90;99.90;;;;;;5064012;28;20033;-74
2021/09/20 02:12:37;;;;;;;3.15;2.05;;;12.90;99.90;;;;;;5066309;28;20127;-73
2021/09/20 02:15:05;;;;;;;3.28;2.05;;;13.00;99.90;;;;;;5067203;28;20423;-74
2021/09/20 02:17:31;;;;;;;2.70;1.75;;;12.90;99.90;;;;;;5067110;28;20032;-74
2021/09/20 02:19:56;;;;;;;4.43;2.22;;;12.90;99.90;;;;;;5054990;28;20021;-73
2021/09/20 02:22:22;;;;;;;2.88;1.98;;;13.00;99.90;;;;;;5062492;28;20176;-74
2021/09/20 02:24:48;;;;;;;3.00;2.00;;;12.90;99.90;;;;;;5062972;28;20066;-74
2021/09/20 02:27:13;;;;;;;2.90;1.80;;;13.00;99.90;;;;;;5052716;28;20025;-74
2021/09/20 02:29:39;;;;;;;3.72;2.15;;;12.90;99.90;;;;;;5062621;28;20021;-73
2021/09/20 02:32:05;;;;;;;3.78;1.77;;;12.90;99.90;;;;;;5066021;28;20020;-74
2021/09/20 02:34:30;;;;;;;1.85;1.70;;;12.90;99.90;;;;;;5067044;28;20028;-74
2021/09/20 02:36:56;;;;;;;3.10;2.10;;;12.90;99.90;;;;;;5066374;28;20029;-73
2021/09/20 02:39:21;;;;;;;3.08;1.80;;;12.90;99.90;;;;;;5063607;28;20429;-74
2021/09/20 02:41:48;;;;;;;3.10;2.10;;;12.90;99.90;;;;;;5056989;28;20028;-74
2021/09/20 02:44:13;;;;;;;6.28;2.40;;;12.90;99.90;;;;;;5053579;28;20167;-74
2021/09/20 02:46:39;;;;;;;2.95;1.60;;;12.90;99.90;;;;;;5058816;28;20115;-74
2021/09/20 02:49:04;;;;;;;3.00;2.22;;;12.90;99.90;;;;;;5060415;28;20475;-74
2021/09/20 02:51:30;;;;;;;2.55;1.80;;;12.90;99.90;;;;;;5064648;28;20033;-74
2021/09/20 02:53:56;;;;;;;4.55;1.83;;;12.90;99.90;;;;;;5063972;28;20411;-73
2021/09/20 02:56:23;;;;;;;2.85;2.08;;;12.90;99.90;;;;;;5064106;28;20394;-74
2021/09/20 02:58:48;;;;;;;3.53;2.00;;;12.90;99.90;;;;;;5060673;28;20502;-74
2021/09/20 03:01:14;;;;;;;4.25;1.98;;;12.90;99.90;;;;;;5062191;28;20163;-74
2021/09/20 03:03:39;;;;;;;2.88;2.15;;;12.90;99.90;;;;;;5066725;28;20069;-74
2021/09/20 03:06:05;;;;;;;3.40;1.98;;;12.90;99.90;;;;;;5069747;28;20108;-74
2021/09/20 03:08:30;;;;;;;6.30;2.30;;;12.90;99.90;;;;;;5058491;28;20025;-74
2021/09/20 03:10:56;;;;;;;4.43;2.17;;;12.90;99.90;;;;;;5065863;28;20052;-74
2021/09/20 03:13:22;;;;;;;5.15;1.85;;;12.80;99.90;;;;;;5067866;28;20036;-73
2021/09/20 03:15:47;;;;;;;3.78;2.00;;;12.80;99.90;;;;;;5067657;28;20033;-74
2021/09/20 03:18:13;;;;;;;3.10;1.80;;;12.80;99.90;;;;;;5066029;28;20028;-74
2021/09/20 03:20:38;;;;;;;7.03;2.13;;;12.80;99.90;;;;;;5063515;28;20384;-73
2021/09/20 03:23:04;;;;;;;3.28;1.98;;;12.80;99.90;;;;;;5062674;28;20020;-74
2021/09/20 03:25:29;;;;;;;3.17;1.98;;;12.80;99.90;;;;;;5068718;28;20162;-74
2021/09/20 03:27:55;;;;;;;5.65;2.10;;;12.80;99.90;;;;;;5064921;28;20107;-74
2021/09/20 03:30:21;;;;;;;2.72;1.77;;;12.80;99.90;;;;;;5064737;28;20487;-74
2021/09/20 03:32:46;;;;;;;5.55;2.20;;;12.80;99.90;;;;;;5066725;28;20029;-73
2021/09/20 03:35:14;;;;;;;4.10;2.05;;;12.80;99.90;;;;;;5064476;28;20017;-73
2021/09/20 03:37:45;;;;;;;3.50;2.08;;;12.80;99.90;;;;;;5070139;28;20025;-74
2021/09/20 03:40:12;;;;;;;3.30;2.00;;;12.80;99.90;;;;;;5060362;28;20063;-73
2021/09/20 03:42:38;;;;;;;3.50;2.03;;;12.80;99.90;;;;;;5057673;28;20116;-73
2021/09/20 03:45:04;;;;;;;2.88;2.10;;;12.80;99.90;;;;;;5069214;28;20518;-74
2021/09/20 03:47:30;;;;;;;4.25;2.30;;;12.80;99.90;;;;;;5069199;28;20029;-74
2021/09/20 03:49:55;;;;;;;2.67;1.65;;;12.80;99.90;;;;;;5062317;28;21284;-73
2021/09/20 03:52:21;;;;;;;4.03;1.73;;;12.80;99.90;;;;;;5067664;28;20379;-74
2021/09/20 03:54:46;;;;;;;3.83;2.00;;;12.80;99.90;;;;;;5061113;28;20055;-74
2021/09/20 03:57:12;;;;;;;5.32;1.60;;;12.80;99.90;;;;;;5066193;28;20503;-73
2021/09/20 03:59:38;;;;;;;8.77;2.20;;;12.80;99.90;;;;;;5069634;28;20048;-74
2021/09/20 04:02:04;;;;;;;3.85;1.90;;;12.80;99.90;;;;;;5066251;28;20024;-74
2021/09/20 04:04:29;;;;;;;3.08;1.60;;;12.80;99.90;;;;;;5068288;28;20028;-74
2021/09/20 04:06:55;;;;;;;3.58;1.92;;;12.80;99.90;;;;;;5061587;28;20029;-74
2021/09/20 04:09:22;;;;;;;3.13;1.90;;;12.80;99.90;;;;;;5059937;28;20029;-74
2021/09/20 04:11:47;;;;;;;5.47;2.75;;;12.80;99.90;;;;;;5068222;28;20033;-73
2021/09/20 04:14:13;;;;;;;3.92;1.80;;;12.80;99.90;;;;;;5068616;28;20210;-73
2021/09/20 04:16:38;;;;;;;3.53;2.28;;;12.80;99.90;;;;;;5068552;28;20109;-73
2021/09/20 04:19:03;;;;;;;3.45;2.05;;;12.80;99.90;;;;;;5067524;28;20419;-72
2021/09/20 04:21:29;;;;;;;5.20;2.03;;;12.80;99.90;;;;;;5070893;28;20020;-72
2021/09/20 04:23:54;;;;;;;2.72;1.80;;;12.80;99.90;;;;;;5057252;28;20503;-72
2021/09/20 04:26:20;;;;;;;3.72;1.83;;;12.80;99.90;;;;;;5064530;28;20029;-73
2021/09/20 04:28:45;;;;;;;3.17;2.10;;;12.80;99.90;;;;;;5064291;28;20482;-72
2021/09/20 04:31:11;;;;;;;3.30;2.00;;;12.80;99.90;;;;;;5063780;28;20043;-72
2021/09/20 04:33:36;;;;;;;4.68;2.38;;;12.80;99.90;;;;;;5067773;28;20036;-72
2021/09/20 04:36:02;;;;;;;2.65;1.98;;;12.70;99.90;;;;;;5065381;28;20144;-72
2021/09/20 04:38:28;;;;;;;3.25;1.80;;;12.70;99.90;;;;;;5058515;28;20510;-72
2021/09/20 04:40:53;;;;;;;2.92;2.13;;;12.70;99.90;;;;;;5065956;28;20035;-72
2021/09/20 04:43:19;;;;;;;2.72;1.98;;;12.70;99.90;;;;;;5065298;28;20440;-72
2021/09/20 04:45:45;;;;;;;4.25;2.03;;;12.70;99.90;;;;;;5069253;28;20028;-72
2021/09/20 04:48:12;;;;;;;3.50;1.95;;;12.70;99.90;;;;;;5061876;28;20035;-72
2021/09/20 04:50:45;;;;;;;7.20;2.05;;;12.70;99.90;;;;;;5069566;28;20103;-72
2021/09/20 04:53:13;;;;;;;5.50;2.00;;;12.70;99.90;;;;;;5068908;28;20024;-72
2021/09/20 04:55:38;;;;;;;2.95;2.10;;;12.70;99.90;;;;;;5068157;28;20033;-72
2021/09/20 04:58:09;;;;;;;2.08;1.58;;;12.70;99.90;;;;;;5067489;28;20526;-72
2021/09/20 05:00:35;;;;;;;4.03;1.87;;;12.70;99.90;;;;;;5058331;28;20268;-72
2021/09/20 05:03:02;;;;;;;6.82;1.90;;;12.70;99.90;;;;;;5069618;28;20024;-72
2021/09/20 05:05:27;;;;;;;4.60;2.00;;;12.70;99.90;;;;;;5060866;28;20083;-72
2021/09/20 05:07:53;;;;;;;7.65;3.47;;;12.70;99.90;;;;;;5067730;28;20024;-72
2021/09/20 05:10:19;;;;;;;2.65;2.08;;;12.70;99.90;;;;;;5066647;28;20028;-72
2021/09/20 05:12:47;;;;;;;3.33;2.08;;;12.80;99.90;;;;;;5065971;28;20036;-72
2021/09/20 05:15:13;;;;;;;7.32;1.85;;;12.80;99.90;;;;;;5057052;28;20091;-72
2021/09/20 05:17:38;;;;;;;2.75;1.70;;;12.80;99.90;;;;;;5070446;28;20543;-72
2021/09/20 05:20:05;;;;;;;3.60;1.88;;;12.80;99.90;;;;;;5064893;28;20479;-72
2021/09/20 05:22:31;;;;;;;5.53;2.38;;;12.80;99.90;;;;;;5064184;28;20020;-73
2021/09/20 05:24:56;;;;;;;3.83;1.90;;;12.80;99.90;;;;;;5069583;28;20463;-73
2021/09/20 05:27:22;;;;;;;2.92;1.90;;;12.80;99.90;;;;;;5063828;28;20108;-75
2021/09/20 05:29:48;;;;;;;3.38;1.90;;;12.80;99.90;;;;;;5067619;28;20057;-75
2021/09/20 05:32:13;;;;;;;5.15;2.10;;;12.80;99.90;;;;;;5066444;28;20027;-74
2021/09/20 05:34:39;;;;;;;10.13;2.55;;;12.70;99.90;;;;;;5065716;28;20060;-73
2021/09/20 05:37:04;;;;;;;3.67;2.10;;;12.80;99.90;;;;;;5063607;28;20021;-73
2021/09/20 05:39:33;;;;;;;4.68;1.65;;;12.80;99.90;;;;;;5064132;28;20093;-75
2021/09/20 05:41:58;;;;;;;3.58;2.05;;;12.80;99.90;;;;;;5066378;28;20060;-75
2021/09/20 05:44:24;;;;;;;8.23;2.22;;;12.80;99.90;;;;;;5063562;28;20428;-81
2021/09/20 05:46:49;;;;;;;3.75;1.92;;;12.80;99.90;;;;;;5065806;28;20073;-74
2021/09/20 05:49:15;;;;;;;3.55;1.63;;;12.90;99.90;;;;;;5058179;28;20029;-73
2021/09/20 05:51:40;;;;;;;5.68;2.17;;;12.90;99.90;;;;;;5066848;28;21328;-73
2021/09/20 05:54:20;;;;;;;10.65;1.85;;;13.00;99.90;;;;;;5056407;28;20089;-73
2021/09/20 05:56:46;;;;;;;4.55;2.22;;;12.90;99.90;;;;;;5060360;28;20024;-74
2021/09/20 05:59:11;;;;;;;5.70;1.90;;;13.00;99.90;;;;;;5060470;28;20047;-73
2021/09/20 06:01:37;;;;;;;2.83;2.10;;;13.00;99.90;;;;;;5061724;28;20032;-73
2021/09/20 06:04:02;;;;;;;8.93;2.05;;;13.00;99.90;;;;;;5060331;28;20427;-72
2021/09/20 06:06:28;;;;;;;7.20;1.92;;;13.10;99.90;;;;;;5067202;28;20110;-72
2021/09/20 06:08:53;;;;;;;6.57;2.30;;;13.10;99.90;;;;;;5067369;28;20029;-72
2021/09/20 06:11:19;;;;;;;6.13;1.85;;;13.10;99.90;;;;;;5065185;28;20070;-73
2021/09/20 06:13:45;;;;;;;4.20;2.13;;;13.10;99.90;;;;;;5064003;28;20036;-73
2021/09/20 06:16:10;;;;;;;6.80;1.77;;;13.10;99.90;;;;;;5061287;28;20017;-73
2021/09/20 06:18:36;;;;;;;3.30;1.80;;;13.20;99.90;;;;;;5057445;28;20486;-78
2021/09/20 06:21:03;;;;;;;2.58;1.83;;;13.20;99.90;;;;;;5066124;28;20131;-74
2021/09/20 06:23:28;;;;;;;4.53;2.05;;;13.20;99.90;;;;;;5060649;28;20431;-71
2021/09/20 06:25:55;;;;;;;2.58;1.67;;;13.20;99.90;;;;;;5057879;28;20020;-74
2021/09/20 06:28:21;;;;;;;3.10;2.25;;;13.30;99.90;;;;;;5050150;28;20033;-74
2021/09/20 06:30:46;;;;;;;5.95;1.77;;;13.30;99.90;;;;;;5060357;28;20050;-74
2021/09/20 06:33:21;;;;;;;3.72;2.38;;;13.30;99.90;;;;;;5061237;28;20024;-75
2021/09/20 06:35:47;;;;;;;3.35;1.90;;;13.30;99.90;;;;;;5065193;28;20020;-74
2021/09/20 06:38:12;;;;;;;6.97;1.98;;;13.40;99.90;;;;;;5061329;28;20020;-75
2021/09/20 06:40:38;;;;;;;3.47;1.70;;;13.40;99.90;;;;;;5065044;28;20039;-73
2021/09/20 06:43:04;;;;;;;2.40;1.98;;;13.40;99.90;;;;;;5061384;28;20032;-73
2021/09/20 06:45:29;;;;;;;3.80;2.33;;;13.50;99.90;;;;;;5067807;28;20116;-73
2021/09/20 06:47:55;;;;;;;3.45;2.10;;;13.50;99.90;;;;;;5068170;28;20486;-73
2021/09/20 06:50:20;;;;;;;11.48;2.53;;;13.50;99.90;;;;;;5058267;28;20040;-73
2021/09/20 06:52:46;;;;;;;2.40;1.85;;;13.60;99.90;;;;;;5054643;28;20032;-73
2021/09/20 06:55:13;;;;;;;4.82;2.42;;;13.60;99.90;;;;;;5061456;28;20415;-73
2021/09/20 06:57:39;;;;;;;2.50;1.70;;;13.60;99.90;;;;;;5053342;28;20045;-73
2021/09/20 07:00:07;;;;;;;5.70;1.88;;;13.70;99.90;;;;;;5061699;28;20028;-73
2021/09/20 07:02:33;;;;;;;5.13;2.70;;;13.70;99.90;;;;;;5063274;28;20025;-73
2021/09/20 07:04:58;;;;;;;9.55;1.95;;;13.80;99.90;;;;;;5068499;28;20046;-73
2021/09/20 07:07:24;;;;;;;2.85;1.95;;;13.80;99.90;;;;;;5066093;28;20028;-73
2021/09/20 07:09:50;;;;;;;4.82;1.67;;;13.80;99.90;;;;;;5057378;28;20023;-75
2021/09/20 07:12:15;;;;;;;7.00;2.00;;;13.90;99.90;;;;;;5062731;28;20031;-75
2021/09/20 07:14:42;;;;;;;2.90;1.83;;;13.90;99.90;;;;;;5063753;28;20115;-75
2021/09/20 07:17:07;;;;;;;3.30;1.55;;;13.90;99.90;;;;;;5062034;28;20017;-75
2021/09/20 07:19:33;;;;;;;5.90;2.08;;;13.90;99.90;;;;;;5062999;28;20032;-75
2021/09/20 07:21:59;;;;;;;5.25;2.05;;;14.00;99.90;;;;;;5065008;28;20040;-75
2021/09/20 07:24:24;;;;;;;3.47;1.92;;;14.00;99.90;;;;;;5062689;28;20502;-75
2021/09/20 07:26:50;;;;;;;5.30;2.10;;;14.10;99.90;;;;;;5065034;28;20446;-75
2021/09/20 07:29:16;;;;;;;4.40;1.90;;;14.10;99.90;;;;;;5066718;28;20024;-75
2021/09/20 07:31:41;;;;;;;5.97;2.10;;;14.20;99.90;;;;;;5066087;28;20777;-75
2021/09/20 07:34:07;;;;;;;4.35;2.50;;;14.20;99.90;;;;;;5065335;28;20036;-75
2021/09/20 07:36:32;;;;;;;4.55;2.20;;;14.20;99.90;;;;;;5067904;28;20603;-74
2021/09/20 07:38:58;;;;;;;3.70;1.63;;;14.20;99.90;;;;;;5067588;28;20036;-75
2021/09/20 07:41:23;;;;;;;3.45;1.98;;;14.30;99.90;;;;;;5066650;28;20032;-75
2021/09/20 07:43:49;;;;;;;5.57;2.90;;;14.30;99.90;;;;;;5063186;28;20035;-75
2021/09/20 07:46:19;;;;;;;3.58;2.58;;;14.30;99.90;;;;;;5064053;28;20024;-75
2021/09/20 07:48:45;;;;;;;3.10;1.85;;;14.40;99.90;;;;;;5067312;28;20123;-74
2021/09/20 07:51:11;;;;;;;7.90;2.90;;;14.50;99.90;;;;;;5057830;28;20109;-74
2021/09/20 07:53:37;;;;;;;3.03;1.77;;;14.50;99.90;;;;;;5070427;28;20043;-74
2021/09/20 07:56:02;;;;;;;3.85;1.90;;;14.60;99.90;;;;;;5066514;28;20028;-75
2021/09/20 07:58:28;;;;;;;8.10;2.28;;;14.60;99.90;;;;;;5069980;28;20052;-74
2021/09/20 08:00:53;;;;;;;5.45;1.98;;;14.70;99.90;;;;;;5061820;28;20021;-73
2021/09/20 08:03:19;;;;;;;1.50;1.40;;;14.70;99.90;;;;;;5060556;28;20426;-73
2021/09/20 08:05:45;;;;;;;2.00;1.67;;;14.80;99.90;;;;;;5066207;28;20029;-74
2021/09/20 08:08:11;;;;;;;3.38;2.17;;;14.80;99.00;;;;;;5066966;28;20408;-73
2021/09/20 08:10:37;;;;;;;2.72;2.17;;;14.90;99.60;;;;;;5062929;28;20068;-73
2021/09/20 08:13:04;;;;;;;5.55;2.30;;;15.00;99.80;;;;;;5061109;28;20041;-73
2021/09/20 08:15:30;;;;;;;2.50;1.65;;;15.00;99.20;;;;;;5067971;28;20085;-73
2021/09/20 08:17:55;;;;;;;4.80;1.60;;;15.20;99.20;;;;;;5064483;28;20027;-73
2021/09/20 08:20:21;;;;;;;3.22;2.38;;;15.20;98.30;;;;;;5062039;28;20021;-73
2021/09/20 08:22:50;;;;;;;4.22;1.70;;;15.20;98.20;;;;;;5068707;28;20037;-73
2021/09/20 08:25:18;;;;;;;3.63;2.22;;;15.30;98.00;;;;;;5066903;28;20085;-73
2021/09/20 08:27:45;;;;;;;2.22;1.75;;;15.30;97.10;;;;;;5066601;28;20075;-73
2021/09/20 08:30:11;;;;;;;2.53;1.80;;;15.30;97.40;;;;;;5063438;28;20033;-73
2021/09/20 08:32:36;;;;;;;3.38;1.90;;;15.30;98.00;;;;;;5065604;28;20386;-73
2021/09/20 08:35:02;;;;;;;3.35;2.03;;;15.40;97.80;;;;;;5057656;28;20025;-85
2021/09/20 08:37:28;;;;;;;4.80;1.70;;;15.40;97.40;;;;;;5060153;28;20020;-73
2021/09/20 08:39:54;;;;;;;5.47;2.35;;;15.30;96.50;;;;;;5068699;28;20104;-73
2021/09/20 08:42:20;;;;;;;5.78;1.80;;;15.30;96.50;;;;;;5065396;28;20315;-73
2021/09/20 08:44:46;;;;;;;2.60;1.58;;;15.40;96.70;;;;;;5064710;28;20528;-74
2021/09/20 08:47:17;;;;;;;2.72;1.77;;;15.40;95.50;;;;;;5069072;28;20036;-73
2021/09/20 08:49:44;;;;;;;2.15;1.60;;;15.50;95.70;;;;;;5062946;28;20148;-73
2021/09/20 08:52:10;;;;;;;4.20;2.00;;;15.50;94.40;;;;;;5066877;28;20037;-73
2021/09/20 08:54:36;;;;;;;2.15;1.70;;;15.60;94.40;;;;;;5065403;28;20166;-73
2021/09/20 08:57:02;;;;;;;2.15;1.90;;;15.60;94.90;;;;;;5060439;28;20107;-73
2021/09/20 08:59:28;;;;;;;2.97;1.70;;;15.60;95.50;;;;;;5068554;28;20029;-73
2021/09/20 09:01:55;;;;;;;3.45;1.63;;;15.60;94.80;;;;;;5069554;28;20032;-73
2021/09/20 09:04:35;;;;;;;2.65;1.98;;;15.60;96.20;;;;;;5070404;28;20050;-72
2021/09/20 09:07:04;;;;;;;3.40;1.98;;;15.70;97.00;;;;;;5069945;28;20043;-73
2021/09/20 09:09:44;;;;;;;3.88;1.83;;;15.60;96.70;;;;;;5067238;28;20082;-73
2021/09/20 09:12:24;;;;;;;2.70;1.63;;;15.60;95.40;;;;;;5071197;28;20032;-73
2021/09/20 09:14:55;;;;;;;2.28;1.55;;;15.70;95.50;;;;;;5070740;28;20028;-73
2021/09/20 09:17:29;;;;;;;3.97;1.92;;;15.80;95.70;;;;;;5069541;28;20078;-73
2021/09/20 09:20:13;;;;;;;4.20;2.00;;;16.00;95.40;;;;;;5067759;28;20107;-73
2021/09/20 09:22:51;;;;;;;2.00;1.52;;;16.20;93.70;;;;;;5057834;28;20034;-73
2021/09/20 09:25:22;;;;;;;5.10;2.10;;;16.20;92.80;;;;;;5058763;28;20036;-73
2021/09/20 09:27:50;;;;;;;4.88;1.80;;;16.20;91.20;;;;;;5064871;28;20021;-74
2021/09/20 09:30:27;;;;;;;5.85;2.00;;;16.20;92.10;;;;;;5062447;28;20056;-75
2021/09/20 09:33:12;;;;;;;2.38;1.75;;;16.20;91.20;;;;;;5064727;28;20036;-71
2021/09/20 09:35:41;;;;;;;7.75;1.85;;;16.40;90.30;;;;;;5062502;28;20024;-73
2021/09/20 09:38:08;;;;;;;6.28;1.80;;;16.50;90.80;;;;;;5060624;28;20047;-73
2021/09/20 09:40:57;;;;;;;4.50;1.83;;;16.60;89.60;;;;;;5058652;28;20024;-73
2021/09/20 09:43:29;;;;;;;3.70;1.67;;;16.70;90.70;;;;;;5064857;28;20040;-73
2021/09/20 09:45:57;;;;;;;2.95;1.40;;;16.80;90.30;;;;;;5065690;28;20016;-73
2021/09/20 09:48:25;;;;;;;2.80;1.40;;;16.90;85.10;;;;;;5068087;28;20032;-72
2021/09/20 09:50:53;;;;;;;4.40;1.60;;;17.00;85.20;;;;;;5065973;28;20028;-72
2021/09/20 09:53:33;;;;;;;3.22;1.60;;;17.00;82.60;;;;;;5062199;28;20040;-73
2021/09/20 09:56:25;;;;;;;3.83;1.70;;;17.00;83.40;;;;;;5061108;28;20053;-73
2021/09/20 09:59:02;;;;;;;2.72;1.60;;;17.00;83.50;;;;;;5063677;28;20076;-73
2021/09/20 10:01:37;;;;;;;3.13;1.92;;;16.90;81.90;;;;;;5069244;28;20029;-72
2021/09/20 10:04:35;;;;;;;3.53;1.70;;;16.80;83.10;;;;;;5075254;28;20489;-73
2021/09/20 10:07:10;;;;;;;2.60;1.60;;;16.60;83.90;;;;;;5060881;28;20041;-73
2021/09/20 10:09:44;;;;;;;4.90;1.52;;;16.50;87.50;;;;;;5070654;28;20052;-75
2021/09/20 10:12:10;;;;;;;2.70;1.67;;;16.40;87.20;;;;;;5075959;28;20032;-72
2021/09/20 10:14:35;;;;;;;4.32;1.63;;;16.30;88.00;;;;;;5069086;28;20029;-72
2021/09/20 10:17:02;;;;;;;3.38;1.90;;;16.20;89.50;;;;;;5065011;28;20437;-73
2021/09/20 10:19:27;;;;;;;4.43;2.17;;;16.10;88.60;;;;;;5066420;28;20055;-73
2021/09/20 10:21:53;;;;;;;3.63;1.90;;;16.10;90.10;;;;;;5055476;28;20025;-73
2021/09/20 10:24:21;;;;;;;2.55;2.13;;;16.00;90.40;;;;;;5066927;28;20029;-72
2021/09/20 10:26:46;;;;;;;2.53;2.00;;;15.90;90.60;;;;;;5056617;28;20024;-73
2021/09/20 10:29:17;;;;;;;5.53;2.70;;;15.90;91.90;;;;;;5056283;28;20036;-72
2021/09/20 10:31:44;;;;;;;6.35;2.42;;;15.90;92.00;;;;;;5066794;28;20038;-72
2021/09/20 10:34:21;;;;;;;5.68;2.28;;;15.90;92.20;;;;;;5060567;28;20035;-72
2021/09/20 10:36:58;;;;;;;2.40;2.10;;;15.80;92.50;;;;;;5067021;28;20490;-72
2021/09/20 10:39:48;;;;;;;3.75;2.15;;;15.80;92.70;;;;;;5067883;28;20036;-72
2021/09/20 10:42:35;;;;;;;3.50;2.30;;;15.80;91.80;;;;;;5064345;28;20020;-75
2021/09/20 10:45:03;;;;;;;4.65;2.13;;;15.70;93.50;;;;;;5067877;28;20487;-76
2021/09/20 10:47:46;;;;;;;3.00;2.13;;;15.70;92.90;;;;;;5065771;28;20418;-75
2021/09/20 10:50:13;;;;;;;7.28;2.63;;;15.70;93.60;;;;;;5067543;28;20024;-75
2021/09/20 10:53:17;;;;;;;4.32;2.75;;;15.60;93.50;;;;;;5052888;28;20040;-76
2021/09/20 10:56:01;;;;;;;2.88;2.08;;;15.60;93.60;;;;;;5054660;28;20054;-76
2021/09/20 10:58:27;;;;;;;4.18;2.28;;;15.60;94.00;;;;;;5068840;28;20086;-76
2021/09/20 11:01:11;;;;;;;4.07;2.92;;;15.60;95.10;;;;;;5057564;28;20033;-76
2021/09/20 11:03:40;;;;;;;4.78;2.85;;;15.60;95.00;;;;;;5054712;28;20028;-75
2021/09/20 11:06:30;;;;;;;4.88;4.00;;;15.60;96.20;;;;;;5065777;28;20066;-76
2021/09/20 11:08:58;;;;;;;6.28;3.50;;;15.60;95.00;;;;;;5064098;28;20031;-75
2021/09/20 11:11:40;;;;;;;5.25;2.15;;;15.60;95.70;;;;;;5056722;28;20029;-75
2021/09/20 11:14:14;;;;;;;4.28;2.40;;;15.60;95.30;;;;;;5066699;28;20025;-75
2021/09/20 11:16:59;;;;;;;2.17;1.95;;;15.60;94.50;;;;;;5067996;28;20538;-80
2021/09/20 11:19:28;;;;;;;10.57;2.08;;;15.60;94.10;;;;;;5068255;28;20025;-76
2021/09/20 11:22:05;;;;;;;5.07;2.55;;;15.60;94.20;;;;;;5067309;28;20099;-77
2021/09/20 11:25:02;;;;;;;6.28;2.42;;;15.70;94.60;;;;;;5058588;28;20048;-77
2021/09/20 11:27:39;;;;;;;4.75;2.50;;;15.70;94.50;;;;;;5068540;28;20107;-76
2021/09/20 11:30:12;;;;;;;3.58;2.00;;;15.70;94.00;;;;;;5068641;28;20479;-77
2021/09/20 11:32:51;;;;;;;4.88;2.70;;;15.70;93.90;;;;;;5059929;28;20108;-76
2021/09/20 11:35:17;;;;;;;4.68;2.58;;;15.80;94.30;;;;;;5067711;28;20028;-78
2021/09/20 11:37:43;;;;;;;6.50;2.72;;;15.80;93.50;;;;;;5070840;28;20032;-77
2021/09/20 11:40:15;;;;;;;4.43;2.38;;;15.80;94.50;;;;;;5073435;28;20051;-78
2021/09/20 11:42:44;;;;;;;5.68;2.40;;;15.80;94.50;;;;;;5062556;28;20052;-76
2021/09/20 11:45:20;;;;;;;7.63;2.08;;;15.90;95.00;;;;;;5067894;28;20437;-76
2021/09/20 11:47:54;;;;;;;5.10;2.35;;;15.90;94.70;;;;;;5065955;28;20519;-77
2021/09/20 11:50:32;;;;;;;3.03;2.08;;;16.00;94.60;;;;;;5058801;28;20103;-76
2021/09/20 11:53:13;;;;;;;5.25;1.92;;;16.10;93.10;;;;;;5070186;28;20116;-76
2021/09/20 11:55:47;;;;;;;;;;;16.20;94.60;;;;;;5070841;28;20082;-75
2021/09/20 11:58:15;;;;;;;4.63;2.08;;;16.20;92.70;;;;;;5063304;28;19916;-76
2021/09/20 12:00:43;;;;;;;4.07;1.80;;;16.30;93.50;;;;;;5070545;28;20103;-75
2021/09/20 12:03:14;;;;;;;3.92;2.10;;;16.40;92.40;;;;;;5062372;28;20079;-76
2021/09/20 12:05:41;;;;;;;;;;;16.50;92.30;;;;;;5068524;28;20115;-76
2021/09/20 12:08:09;;;;;;;4.30;2.17;;;16.60;91.00;;;;;;5067600;28;19912;-75
2021/09/20 12:10:38;;;;;;;2.90;2.03;;;16.70;91.90;;;;;;5066241;28;20448;-76
2021/09/20 12:13:09;;;;;;;4.13;1.92;;;16.80;91.20;;;;;;5071278;28;20040;-76
2021/09/20 12:15:37;;;;;;;2.35;1.80;;;16.80;90.40;;;;;;5066600;28;20533;-76
2021/09/20 12:18:05;;;;;;;3.05;1.65;;;;;;;;;;5070847;28;20025;-76
2021/09/20 12:20:37;;;;;;;4.28;1.85;;;17.00;90.40;;;;;;5061631;28;20501;-76
2021/09/20 12:23:12;;;;;;;4.85;2.05;;;17.10;84.00;;;;;;5071144;28;20494;-76
2021/09/20 12:25:49;;;;;;;3.28;1.88;;;17.10;83.80;;;;;;5064062;28;20024;-76
2021/09/20 12:28:25;;;;;;;6.07;1.77;;;17.20;84.00;;;;;;5066441;28;20025;-76
2021/09/20 12:30:57;;;;;;;3.20;2.00;;;17.30;83.90;;;;;;5068898;28;21656;-76
2021/09/20 12:33:23;;;;;;;3.00;1.98;;;17.40;84.90;;;;;;5061288;28;20540;-76
2021/09/20 12:35:49;;;;;;;6.30;1.98;;;17.40;82.50;;;;;;5068880;28;20052;-76
2021/09/20 12:38:16;;;;;;;3.28;1.95;;;17.30;84.50;;;;;;5065022;28;20526;-76
2021/09/20 12:40:42;;;;;;;2.17;1.75;;;17.40;86.90;;;;;;5070781;28;20036;-76
2021/09/20 12:43:10;;;;;;;2.97;2.10;;;17.40;83.50;;;;;;5070680;28;20067;-76
2021/09/20 12:45:42;;;;;;;3.53;1.80;;;17.40;80.50;;;;;;5070750;28;20036;-76
2021/09/20 12:48:08;;;;;;;2.55;1.85;;;17.50;80.70;;;;;;5054212;28;20031;-76
2021/09/20 12:50:43;;;;;;;6.78;1.90;;;17.60;82.70;;;;;;5061794;28;20383;-73
2021/09/20 12:53:09;;;;;;;2.05;1.67;;;;;;;;;;5066073;28;20028;-72